sensor_id;sensor_type;location;lat;lon;timestamp;temperature;humidity
921;DHT22;447;51.332;6.778;2023-06-22T00:01:24;29.80;52.20
921;DHT22;447;51.332;6.778;2023-06-22T00:03:50;29.80;52.10
921;DHT22;447;51.332;6.778;2023-06-22T00:06:16;29.70;52.20
921;DHT22;447;51.332;6.778;2023-06-22T00:08:42;29.70;52.20
921;DHT22;447;51.332;6.778;2023-06-22T00:11:08;29.70;52.20
921;DHT22;447;51.332;6.778;2023-06-22T00:13:34;29.70;52.20
921;DHT22;447;51.332;6.778;2023-06-22T00:16:04;29.70;52.20
921;DHT22;447;51.332;6.778;2023-06-22T00:18:32;29.60;52.10
921;DHT22;447;51.332;6.778;2023-06-22T00:21:03;29.60;52.20
921;DHT22;447;51.332;6.778;2023-06-22T00:23:32;29.60;52.20
921;DHT22;447;51.332;6.778;2023-06-22T00:26:02;29.60;52.10
921;DHT22;447;51.332;6.778;2023-06-22T00:28:28;29.60;52.20
921;DHT22;447;51.332;6.778;2023-06-22T00:30:54;29.60;52.20
921;DHT22;447;51.332;6.778;2023-06-22T00:33:20;29.50;52.20
921;DHT22;447;51.332;6.778;2023-06-22T00:35:46;29.60;52.30
921;DHT22;447;51.332;6.778;2023-06-22T00:38:12;29.50;52.30
921;DHT22;447;51.332;6.778;2023-06-22T00:40:41;29.50;52.30
921;DHT22;447;51.332;6.778;2023-06-22T00:43:07;29.50;52.40
921;DHT22;447;51.332;6.778;2023-06-22T00:45:40;29.50;52.40
921;DHT22;447;51.332;6.778;2023-06-22T00:48:09;29.50;52.50
921;DHT22;447;51.332;6.778;2023-06-22T00:50:45;29.50;52.50
921;DHT22;447;51.332;6.778;2023-06-22T00:53:11;29.40;52.50
921;DHT22;447;51.332;6.778;2023-06-22T00:55:48;29.40;52.50
921;DHT22;447;51.332;6.778;2023-06-22T00:58:17;29.50;52.70
921;DHT22;447;51.332;6.778;2023-06-22T01:00:48;29.40;52.70
921;DHT22;447;51.332;6.778;2023-06-22T01:03:14;29.40;52.70
921;DHT22;447;51.332;6.778;2023-06-22T01:05:40;29.40;52.80
921;DHT22;447;51.332;6.778;2023-06-22T01:11:00;29.40;52.80
921;DHT22;447;51.332;6.778;2023-06-22T01:13:49;29.40;52.90
921;DHT22;447;51.332;6.778;2023-06-22T01:16:23;29.30;52.90
921;DHT22;447;51.332;6.778;2023-06-22T01:18:56;29.30;53.00
921;DHT22;447;51.332;6.778;2023-06-22T01:21:30;29.30;53.00
921;DHT22;447;51.332;6.778;2023-06-22T01:26:43;29.30;53.10
921;DHT22;447;51.332;6.778;2023-06-22T01:29:16;29.30;53.20
921;DHT22;447;51.332;6.778;2023-06-22T01:31:48;29.30;53.20
921;DHT22;447;51.332;6.778;2023-06-22T01:34:15;29.20;53.20
921;DHT22;447;51.332;6.778;2023-06-22T01:36:45;29.30;53.30
921;DHT22;447;51.332;6.778;2023-06-22T01:39:14;29.20;53.30
921;DHT22;447;51.332;6.778;2023-06-22T01:41:41;29.20;53.30
921;DHT22;447;51.332;6.778;2023-06-22T01:44:10;29.20;53.40
921;DHT22;447;51.332;6.778;2023-06-22T01:46:38;29.20;53.40
921;DHT22;447;51.332;6.778;2023-06-22T01:49:09;29.20;53.40
921;DHT22;447;51.332;6.778;2023-06-22T01:51:37;29.20;53.50
921;DHT22;447;51.332;6.778;2023-06-22T01:54:06;29.20;53.60
921;DHT22;447;51.332;6.778;2023-06-22T01:56:34;29.10;53.50
921;DHT22;447;51.332;6.778;2023-06-22T01:59:17;29.10;53.50
921;DHT22;447;51.332;6.778;2023-06-22T02:02:04;29.10;53.60
921;DHT22;447;51.332;6.778;2023-06-22T02:04:38;29.10;53.60
921;DHT22;447;51.332;6.778;2023-06-22T02:07:13;29.10;53.70
921;DHT22;447;51.332;6.778;2023-06-22T02:09:46;29.10;53.70
921;DHT22;447;51.332;6.778;2023-06-22T02:12:18;29.00;53.70
921;DHT22;447;51.332;6.778;2023-06-22T02:14:50;29.00;53.70
921;DHT22;447;51.332;6.778;2023-06-22T02:17:18;29.10;53.80
921;DHT22;447;51.332;6.778;2023-06-22T02:19:44;29.00;53.80
921;DHT22;447;51.332;6.778;2023-06-22T02:22:18;29.00;53.80
921;DHT22;447;51.332;6.778;2023-06-22T02:24:44;29.00;53.90
921;DHT22;447;51.332;6.778;2023-06-22T02:27:10;29.00;53.90
921;DHT22;447;51.332;6.778;2023-06-22T02:29:36;29.00;54.00
921;DHT22;447;51.332;6.778;2023-06-22T02:32:02;29.00;54.00
921;DHT22;447;51.332;6.778;2023-06-22T02:34:35;28.90;54.00
921;DHT22;447;51.332;6.778;2023-06-22T02:37:02;29.00;54.10
921;DHT22;447;51.332;6.778;2023-06-22T02:39:30;29.00;54.10
921;DHT22;447;51.332;6.778;2023-06-22T02:41:56;28.90;54.10
921;DHT22;447;51.332;6.778;2023-06-22T02:44:22;28.90;54.10
921;DHT22;447;51.332;6.778;2023-06-22T02:46:51;28.90;54.20
921;DHT22;447;51.332;6.778;2023-06-22T02:49:17;28.90;54.20
921;DHT22;447;51.332;6.778;2023-06-22T02:51:48;28.90;54.30
921;DHT22;447;51.332;6.778;2023-06-22T02:54:19;28.80;54.30
921;DHT22;447;51.332;6.778;2023-06-22T02:56:50;28.90;54.40
921;DHT22;447;51.332;6.778;2023-06-22T02:59:20;28.80;54.40
921;DHT22;447;51.332;6.778;2023-06-22T03:01:51;28.80;54.40
921;DHT22;447;51.332;6.778;2023-06-22T03:04:27;28.80;54.50
921;DHT22;447;51.332;6.778;2023-06-22T03:06:53;28.80;54.50
921;DHT22;447;51.332;6.778;2023-06-22T03:09:19;28.80;54.50
921;DHT22;447;51.332;6.778;2023-06-22T03:11:48;28.80;54.50
921;DHT22;447;51.332;6.778;2023-06-22T03:14:14;28.80;54.60
921;DHT22;447;51.332;6.778;2023-06-22T03:16:39;28.70;54.60
921;DHT22;447;51.332;6.778;2023-06-22T03:19:08;28.70;54.60
921;DHT22;447;51.332;6.778;2023-06-22T03:21:35;28.70;54.70
921;DHT22;447;51.332;6.778;2023-06-22T03:24:04;28.70;54.70
921;DHT22;447;51.332;6.778;2023-06-22T03:26:33;28.70;54.70
921;DHT22;447;51.332;6.778;2023-06-22T03:29:00;28.70;54.80
921;DHT22;447;51.332;6.778;2023-06-22T03:31:28;28.70;54.90
921;DHT22;447;51.332;6.778;2023-06-22T03:33:53;28.60;54.80
921;DHT22;447;51.332;6.778;2023-06-22T03:36:25;28.60;54.80
921;DHT22;447;51.332;6.778;2023-06-22T03:38:51;28.60;55.40
921;DHT22;447;51.332;6.778;2023-06-22T03:41:20;28.60;54.90
921;DHT22;447;51.332;6.778;2023-06-22T03:43:47;28.60;54.90
921;DHT22;447;51.332;6.778;2023-06-22T03:46:14;28.60;54.90
921;DHT22;447;51.332;6.778;2023-06-22T03:48:43;28.60;54.90
921;DHT22;447;51.332;6.778;2023-06-22T03:51:11;28.60;55.00
921;DHT22;447;51.332;6.778;2023-06-22T03:53:37;28.50;55.00
921;DHT22;447;51.332;6.778;2023-06-22T03:56:05;28.60;55.10
921;DHT22;447;51.332;6.778;2023-06-22T03:58:31;28.50;55.10
921;DHT22;447;51.332;6.778;2023-06-22T04:01:01;28.50;55.10
921;DHT22;447;51.332;6.778;2023-06-22T04:03:29;28.50;55.10
921;DHT22;447;51.332;6.778;2023-06-22T04:05:55;28.50;55.20
921;DHT22;447;51.332;6.778;2023-06-22T04:08:21;28.50;55.20
921;DHT22;447;51.332;6.778;2023-06-22T04:11:12;28.40;55.20
921;DHT22;447;51.332;6.778;2023-06-22T04:13:38;28.50;55.40
921;DHT22;447;51.332;6.778;2023-06-22T04:16:04;28.50;55.40
921;DHT22;447;51.332;6.778;2023-06-22T04:18:30;28.40;55.30
921;DHT22;447;51.332;6.778;2023-06-22T04:20:55;28.40;55.30
921;DHT22;447;51.332;6.778;2023-06-22T04:23:26;28.40;55.40
921;DHT22;447;51.332;6.778;2023-06-22T04:25:51;28.40;55.40
921;DHT22;447;51.332;6.778;2023-06-22T04:28:17;28.40;55.40
921;DHT22;447;51.332;6.778;2023-06-22T04:30:45;28.40;55.40
921;DHT22;447;51.332;6.778;2023-06-22T04:33:15;28.40;55.40
921;DHT22;447;51.332;6.778;2023-06-22T04:35:46;28.40;55.40
921;DHT22;447;51.332;6.778;2023-06-22T04:38:14;28.30;55.40
921;DHT22;447;51.332;6.778;2023-06-22T04:40:40;28.30;55.40
921;DHT22;447;51.332;6.778;2023-06-22T04:43:06;28.30;55.40
921;DHT22;447;51.332;6.778;2023-06-22T04:45:38;28.30;55.50
921;DHT22;447;51.332;6.778;2023-06-22T04:48:05;28.30;55.50
921;DHT22;447;51.332;6.778;2023-06-22T04:50:33;28.30;55.50
921;DHT22;447;51.332;6.778;2023-06-22T04:52:59;28.30;55.50
921;DHT22;447;51.332;6.778;2023-06-22T04:55:25;28.30;55.60
921;DHT22;447;51.332;6.778;2023-06-22T04:57:58;28.30;55.60
921;DHT22;447;51.332;6.778;2023-06-22T05:00:30;28.20;55.60
921;DHT22;447;51.332;6.778;2023-06-22T05:02:57;28.20;55.60
921;DHT22;447;51.332;6.778;2023-06-22T05:05:24;28.20;55.70
921;DHT22;447;51.332;6.778;2023-06-22T05:07:51;28.20;55.80
921;DHT22;447;51.332;6.778;2023-06-22T05:10:20;28.20;55.80
921;DHT22;447;51.332;6.778;2023-06-22T05:13:12;28.20;55.80
921;DHT22;447;51.332;6.778;2023-06-22T05:15:41;28.20;55.80
921;DHT22;447;51.332;6.778;2023-06-22T05:18:10;28.20;55.80
921;DHT22;447;51.332;6.778;2023-06-22T05:20:37;28.20;56.00
921;DHT22;447;51.332;6.778;2023-06-22T05:23:08;28.10;55.90
921;DHT22;447;51.332;6.778;2023-06-22T05:25:36;28.10;56.00
921;DHT22;447;51.332;6.778;2023-06-22T05:28:02;28.10;56.00
921;DHT22;447;51.332;6.778;2023-06-22T05:30:34;28.10;56.00
921;DHT22;447;51.332;6.778;2023-06-22T05:33:00;28.10;56.00
921;DHT22;447;51.332;6.778;2023-06-22T05:35:28;28.10;56.00
921;DHT22;447;51.332;6.778;2023-06-22T05:37:57;28.10;56.10
921;DHT22;447;51.332;6.778;2023-06-22T05:40:26;28.00;56.00
921;DHT22;447;51.332;6.778;2023-06-22T05:42:55;28.10;56.20
921;DHT22;447;51.332;6.778;2023-06-22T05:45:21;28.10;56.20
921;DHT22;447;51.332;6.778;2023-06-22T05:47:47;28.00;56.10
921;DHT22;447;51.332;6.778;2023-06-22T05:50:13;28.00;56.20
921;DHT22;447;51.332;6.778;2023-06-22T05:52:38;28.00;56.30
921;DHT22;447;51.332;6.778;2023-06-22T05:55:07;28.00;56.30
921;DHT22;447;51.332;6.778;2023-06-22T05:57:35;28.00;56.40
921;DHT22;447;51.332;6.778;2023-06-22T06:00:04;28.00;56.50
921;DHT22;447;51.332;6.778;2023-06-22T06:02:38;28.00;56.50
921;DHT22;447;51.332;6.778;2023-06-22T06:05:11;28.00;56.70
921;DHT22;447;51.332;6.778;2023-06-22T06:07:40;28.00;56.80
921;DHT22;447;51.332;6.778;2023-06-22T06:10:06;28.00;56.90
921;DHT22;447;51.332;6.778;2023-06-22T06:12:32;27.90;57.00
921;DHT22;447;51.332;6.778;2023-06-22T06:14:58;27.90;57.20
921;DHT22;447;51.332;6.778;2023-06-22T06:17:27;27.90;57.10
921;DHT22;447;51.332;6.778;2023-06-22T06:19:53;27.90;57.20
921;DHT22;447;51.332;6.778;2023-06-22T06:22:18;27.90;57.20
921;DHT22;447;51.332;6.778;2023-06-22T06:24:47;27.90;57.30
921;DHT22;447;51.332;6.778;2023-06-22T06:27:13;27.90;57.40
921;DHT22;447;51.332;6.778;2023-06-22T06:29:39;27.90;57.50
921;DHT22;447;51.332;6.778;2023-06-22T06:32:08;27.90;57.50
921;DHT22;447;51.332;6.778;2023-06-22T06:34:36;27.90;57.50
921;DHT22;447;51.332;6.778;2023-06-22T06:37:02;27.90;57.50
921;DHT22;447;51.332;6.778;2023-06-22T06:39:31;27.90;57.70
921;DHT22;447;51.332;6.778;2023-06-22T06:42:01;27.90;57.70
921;DHT22;447;51.332;6.778;2023-06-22T06:44:32;27.80;57.70
921;DHT22;447;51.332;6.778;2023-06-22T06:47:00;27.90;58.00
921;DHT22;447;51.332;6.778;2023-06-22T06:49:28;27.80;58.00
921;DHT22;447;51.332;6.778;2023-06-22T06:51:56;27.80;57.90
921;DHT22;447;51.332;6.778;2023-06-22T06:54:27;27.80;57.90
921;DHT22;447;51.332;6.778;2023-06-22T06:56:53;27.80;58.10
921;DHT22;447;51.332;6.778;2023-06-22T06:59:19;27.80;58.10
921;DHT22;447;51.332;6.778;2023-06-22T07:01:45;27.80;58.20
921;DHT22;447;51.332;6.778;2023-06-22T07:04:13;27.80;58.20
921;DHT22;447;51.332;6.778;2023-06-22T07:06:38;27.80;58.10
921;DHT22;447;51.332;6.778;2023-06-22T07:09:06;27.80;58.30
921;DHT22;447;51.332;6.778;2023-06-22T07:11:33;27.80;58.30
921;DHT22;447;51.332;6.778;2023-06-22T07:14:04;27.70;58.50
921;DHT22;447;51.332;6.778;2023-06-22T07:16:37;27.70;58.40
921;DHT22;447;51.332;6.778;2023-06-22T07:19:07;27.70;58.30
921;DHT22;447;51.332;6.778;2023-06-22T07:21:35;27.70;58.50
921;DHT22;447;51.332;6.778;2023-06-22T07:24:06;27.70;58.70
921;DHT22;447;51.332;6.778;2023-06-22T07:26:36;27.70;58.70
921;DHT22;447;51.332;6.778;2023-06-22T07:29:02;27.70;58.80
921;DHT22;447;51.332;6.778;2023-06-22T07:31:33;27.60;58.90
921;DHT22;447;51.332;6.778;2023-06-22T07:33:59;27.60;58.80
921;DHT22;447;51.332;6.778;2023-06-22T07:36:25;27.70;59.00
921;DHT22;447;51.332;6.778;2023-06-22T07:38:51;27.60;58.80
921;DHT22;447;51.332;6.778;2023-06-22T07:41:17;27.60;58.80
921;DHT22;447;51.332;6.778;2023-06-22T07:43:49;27.60;59.00
921;DHT22;447;51.332;6.778;2023-06-22T07:46:15;27.60;58.90
921;DHT22;447;51.332;6.778;2023-06-22T07:48:44;27.60;58.90
921;DHT22;447;51.332;6.778;2023-06-22T07:51:12;27.60;59.00
921;DHT22;447;51.332;6.778;2023-06-22T07:53:40;27.60;59.00
921;DHT22;447;51.332;6.778;2023-06-22T07:56:12;27.60;59.10
921;DHT22;447;51.332;6.778;2023-06-22T07:58:42;27.60;59.10
921;DHT22;447;51.332;6.778;2023-06-22T08:01:11;27.60;59.20
921;DHT22;447;51.332;6.778;2023-06-22T08:03:39;27.60;59.40
921;DHT22;447;51.332;6.778;2023-06-22T08:06:06;27.50;59.30
921;DHT22;447;51.332;6.778;2023-06-22T08:08:35;27.60;59.40
921;DHT22;447;51.332;6.778;2023-06-22T08:11:01;27.50;59.30
921;DHT22;447;51.332;6.778;2023-06-22T08:13:29;27.50;59.50
921;DHT22;447;51.332;6.778;2023-06-22T08:15:57;27.50;59.60
921;DHT22;447;51.332;6.778;2023-06-22T08:18:26;27.50;59.70
921;DHT22;447;51.332;6.778;2023-06-22T08:20:52;27.50;59.70
921;DHT22;447;51.332;6.778;2023-06-22T08:23:18;27.50;59.80
921;DHT22;447;51.332;6.778;2023-06-22T08:25:46;27.50;60.50
921;DHT22;447;51.332;6.778;2023-06-22T08:28:16;27.50;60.40
921;DHT22;447;51.332;6.778;2023-06-22T08:30:42;27.50;60.30
921;DHT22;447;51.332;6.778;2023-06-22T08:33:07;27.50;60.10
921;DHT22;447;51.332;6.778;2023-06-22T08:35:36;27.50;60.50
921;DHT22;447;51.332;6.778;2023-06-22T08:38:02;27.50;60.90
921;DHT22;447;51.332;6.778;2023-06-22T08:40:28;27.50;60.80
921;DHT22;447;51.332;6.778;2023-06-22T08:42:55;27.40;60.20
921;DHT22;447;51.332;6.778;2023-06-22T08:45:22;27.50;60.10
921;DHT22;447;51.332;6.778;2023-06-22T08:47:50;27.40;59.90
921;DHT22;447;51.332;6.778;2023-06-22T08:50:16;27.50;61.00
921;DHT22;447;51.332;6.778;2023-06-22T08:52:44;27.50;61.40
921;DHT22;447;51.332;6.778;2023-06-22T08:55:14;27.50;61.20
921;DHT22;447;51.332;6.778;2023-06-22T08:57:40;27.50;61.20
921;DHT22;447;51.332;6.778;2023-06-22T09:00:07;27.40;60.60
921;DHT22;447;51.332;6.778;2023-06-22T09:02:48;27.50;60.80
921;DHT22;447;51.332;6.778;2023-06-22T09:05:17;27.50;61.90
921;DHT22;447;51.332;6.778;2023-06-22T09:07:43;27.50;62.10
921;DHT22;447;51.332;6.778;2023-06-22T09:10:10;27.50;63.00
921;DHT22;447;51.332;6.778;2023-06-22T09:12:38;27.50;62.70
921;DHT22;447;51.332;6.778;2023-06-22T09:15:05;27.50;62.70
921;DHT22;447;51.332;6.778;2023-06-22T09:17:35;27.50;63.30
921;DHT22;447;51.332;6.778;2023-06-22T09:20:02;27.60;62.90
921;DHT22;447;51.332;6.778;2023-06-22T09:22:34;27.60;63.60
921;DHT22;447;51.332;6.778;2023-06-22T09:25:02;27.60;64.70
921;DHT22;447;51.332;6.778;2023-06-22T09:27:29;27.60;64.10
921;DHT22;447;51.332;6.778;2023-06-22T09:29:55;27.60;63.40
921;DHT22;447;51.332;6.778;2023-06-22T09:32:21;27.60;63.20
921;DHT22;447;51.332;6.778;2023-06-22T09:34:49;27.70;63.00
921;DHT22;447;51.332;6.778;2023-06-22T09:37:20;27.60;63.70
921;DHT22;447;51.332;6.778;2023-06-22T09:39:46;27.70;64.80
921;DHT22;447;51.332;6.778;2023-06-22T09:42:14;27.70;63.60
921;DHT22;447;51.332;6.778;2023-06-22T09:44:40;27.70;63.40
921;DHT22;447;51.332;6.778;2023-06-22T09:47:06;27.70;64.20
921;DHT22;447;51.332;6.778;2023-06-22T09:49:32;27.70;64.50
921;DHT22;447;51.332;6.778;2023-06-22T09:52:03;27.70;64.60
921;DHT22;447;51.332;6.778;2023-06-22T09:54:34;27.70;64.90
921;DHT22;447;51.332;6.778;2023-06-22T09:57:05;27.80;64.40
921;DHT22;447;51.332;6.778;2023-06-22T09:59:36;27.80;64.30
921;DHT22;447;51.332;6.778;2023-06-22T10:02:02;27.80;64.30
921;DHT22;447;51.332;6.778;2023-06-22T10:04:28;27.80;64.10
921;DHT22;447;51.332;6.778;2023-06-22T10:06:56;27.80;64.70
921;DHT22;447;51.332;6.778;2023-06-22T10:09:27;27.80;64.40
921;DHT22;447;51.332;6.778;2023-06-22T10:11:53;27.80;64.60
921;DHT22;447;51.332;6.778;2023-06-22T10:14:19;27.80;64.60
921;DHT22;447;51.332;6.778;2023-06-22T10:16:45;27.80;64.50
921;DHT22;447;51.332;6.778;2023-06-22T10:19:11;27.80;64.70
921;DHT22;447;51.332;6.778;2023-06-22T10:21:37;27.80;64.30
921;DHT22;447;51.332;6.778;2023-06-22T10:24:05;27.80;64.50
921;DHT22;447;51.332;6.778;2023-06-22T10:26:36;27.90;64.40
921;DHT22;447;51.332;6.778;2023-06-22T10:29:02;27.90;64.60
921;DHT22;447;51.332;6.778;2023-06-22T10:31:31;27.90;64.30
921;DHT22;447;51.332;6.778;2023-06-22T10:33:59;27.90;65.30
921;DHT22;447;51.332;6.778;2023-06-22T10:36:28;27.90;64.60
921;DHT22;447;51.332;6.778;2023-06-22T10:38:56;27.90;64.40
921;DHT22;447;51.332;6.778;2023-06-22T10:41:24;27.90;64.50
921;DHT22;447;51.332;6.778;2023-06-22T10:43:50;27.90;64.50
921;DHT22;447;51.332;6.778;2023-06-22T10:46:16;27.90;64.50
921;DHT22;447;51.332;6.778;2023-06-22T10:48:44;27.90;64.80
921;DHT22;447;51.332;6.778;2023-06-22T10:51:10;27.90;64.30
921;DHT22;447;51.332;6.778;2023-06-22T10:53:36;27.90;63.90
921;DHT22;447;51.332;6.778;2023-06-22T10:56:04;27.90;64.20
921;DHT22;447;51.332;6.778;2023-06-22T10:58:30;27.90;63.80
921;DHT22;447;51.332;6.778;2023-06-22T11:00:56;27.90;63.70
921;DHT22;447;51.332;6.778;2023-06-22T11:03:24;27.90;63.80
921;DHT22;447;51.332;6.778;2023-06-22T11:05:52;27.90;63.80
921;DHT22;447;51.332;6.778;2023-06-22T11:08:18;27.90;64.20
921;DHT22;447;51.332;6.778;2023-06-22T11:10:44;27.90;64.30
921;DHT22;447;51.332;6.778;2023-06-22T11:13:15;27.90;64.40
921;DHT22;447;51.332;6.778;2023-06-22T11:15:43;27.90;65.40
921;DHT22;447;51.332;6.778;2023-06-22T11:18:09;27.90;66.60
921;DHT22;447;51.332;6.778;2023-06-22T11:20:40;27.90;67.00
921;DHT22;447;51.332;6.778;2023-06-22T11:23:08;27.90;68.00
921;DHT22;447;51.332;6.778;2023-06-22T11:25:37;27.90;69.20
921;DHT22;447;51.332;6.778;2023-06-22T11:28:04;27.90;68.50
921;DHT22;447;51.332;6.778;2023-06-22T11:30:30;27.90;68.10
921;DHT22;447;51.332;6.778;2023-06-22T11:32:59;27.90;67.50
921;DHT22;447;51.332;6.778;2023-06-22T11:35:51;27.80;67.00
921;DHT22;447;51.332;6.778;2023-06-22T11:38:17;27.80;66.70
921;DHT22;447;51.332;6.778;2023-06-22T11:40:43;27.80;66.70
921;DHT22;447;51.332;6.778;2023-06-22T11:43:13;27.80;66.60
921;DHT22;447;51.332;6.778;2023-06-22T11:45:43;27.80;66.80
921;DHT22;447;51.332;6.778;2023-06-22T11:48:11;27.80;66.70
921;DHT22;447;51.332;6.778;2023-06-22T11:50:37;27.80;66.70
921;DHT22;447;51.332;6.778;2023-06-22T11:53:03;27.80;66.50
921;DHT22;447;51.332;6.778;2023-06-22T11:55:31;27.80;66.50
921;DHT22;447;51.332;6.778;2023-06-22T11:58:02;27.80;66.80
921;DHT22;447;51.332;6.778;2023-06-22T12:00:30;27.80;67.00
921;DHT22;447;51.332;6.778;2023-06-22T12:02:56;27.70;67.20
921;DHT22;447;51.332;6.778;2023-06-22T12:05:24;27.80;67.40
921;DHT22;447;51.332;6.778;2023-06-22T12:07:52;27.70;67.70
921;DHT22;447;51.332;6.778;2023-06-22T12:10:21;27.80;67.70
921;DHT22;447;51.332;6.778;2023-06-22T12:12:51;27.70;67.80
921;DHT22;447;51.332;6.778;2023-06-22T12:15:17;27.70;68.10
921;DHT22;447;51.332;6.778;2023-06-22T12:17:46;27.70;68.10
921;DHT22;447;51.332;6.778;2023-06-22T12:20:18;27.70;68.20
921;DHT22;447;51.332;6.778;2023-06-22T12:22:44;27.70;68.40
921;DHT22;447;51.332;6.778;2023-06-22T12:25:10;27.70;68.50
921;DHT22;447;51.332;6.778;2023-06-22T12:27:37;27.70;68.70
921;DHT22;447;51.332;6.778;2023-06-22T12:30:04;27.70;68.40
921;DHT22;447;51.332;6.778;2023-06-22T12:32:32;27.70;68.60
921;DHT22;447;51.332;6.778;2023-06-22T12:34:58;27.70;68.70
921;DHT22;447;51.332;6.778;2023-06-22T12:37:42;27.70;68.70
921;DHT22;447;51.332;6.778;2023-06-22T12:40:11;27.70;68.30
921;DHT22;447;51.332;6.778;2023-06-22T12:42:37;27.70;68.40
921;DHT22;447;51.332;6.778;2023-06-22T12:45:04;27.70;68.30
921;DHT22;447;51.332;6.778;2023-06-22T12:47:35;27.70;68.70
921;DHT22;447;51.332;6.778;2023-06-22T12:50:00;27.70;68.80
921;DHT22;447;51.332;6.778;2023-06-22T12:52:26;27.70;69.10
921;DHT22;447;51.332;6.778;2023-06-22T12:54:52;27.70;69.20
921;DHT22;447;51.332;6.778;2023-06-22T12:57:19;27.70;68.80
921;DHT22;447;51.332;6.778;2023-06-22T12:59:48;27.60;68.60
921;DHT22;447;51.332;6.778;2023-06-22T13:02:16;27.70;69.00
921;DHT22;447;51.332;6.778;2023-06-22T13:04:42;27.60;69.00
921;DHT22;447;51.332;6.778;2023-06-22T13:07:09;27.60;68.90
921;DHT22;447;51.332;6.778;2023-06-22T13:09:37;27.60;68.80
921;DHT22;447;51.332;6.778;2023-06-22T13:12:04;27.70;68.80
921;DHT22;447;51.332;6.778;2023-06-22T13:14:32;27.60;68.80
921;DHT22;447;51.332;6.778;2023-06-22T13:17:03;27.60;69.30
921;DHT22;447;51.332;6.778;2023-06-22T13:19:34;27.70;69.50
921;DHT22;447;51.332;6.778;2023-06-22T13:22:02;27.60;69.90
921;DHT22;447;51.332;6.778;2023-06-22T13:24:29;27.60;69.60
921;DHT22;447;51.332;6.778;2023-06-22T13:26:55;27.70;69.40
921;DHT22;447;51.332;6.778;2023-06-22T13:29:23;27.70;69.00
921;DHT22;447;51.332;6.778;2023-06-22T13:31:49;27.70;69.00
921;DHT22;447;51.332;6.778;2023-06-22T13:34:15;27.60;69.90
921;DHT22;447;51.332;6.778;2023-06-22T13:36:46;27.60;69.90
921;DHT22;447;51.332;6.778;2023-06-22T13:39:12;27.60;70.10
921;DHT22;447;51.332;6.778;2023-06-22T13:41:38;27.60;69.80
921;DHT22;447;51.332;6.778;2023-06-22T13:44:04;27.60;70.10
921;DHT22;447;51.332;6.778;2023-06-22T13:46:30;27.60;70.10
921;DHT22;447;51.332;6.778;2023-06-22T13:48:58;27.60;71.30
921;DHT22;447;51.332;6.778;2023-06-22T13:51:29;27.60;71.00
921;DHT22;447;51.332;6.778;2023-06-22T13:53:57;27.70;71.30
921;DHT22;447;51.332;6.778;2023-06-22T13:56:28;27.60;71.00
921;DHT22;447;51.332;6.778;2023-06-22T13:58:58;27.70;70.70
921;DHT22;447;51.332;6.778;2023-06-22T14:01:26;27.60;71.00
921;DHT22;447;51.332;6.778;2023-06-22T14:03:55;27.70;71.70
921;DHT22;447;51.332;6.778;2023-06-22T14:06:23;27.70;71.60
921;DHT22;447;51.332;6.778;2023-06-22T14:08:54;27.70;71.80
921;DHT22;447;51.332;6.778;2023-06-22T14:11:20;27.70;72.00
921;DHT22;447;51.332;6.778;2023-06-22T14:13:46;27.70;71.40
921;DHT22;447;51.332;6.778;2023-06-22T14:16:12;27.70;71.50
921;DHT22;447;51.332;6.778;2023-06-22T14:18:38;27.70;71.20
921;DHT22;447;51.332;6.778;2023-06-22T14:21:04;27.70;70.90
921;DHT22;447;51.332;6.778;2023-06-22T14:23:29;27.70;70.60
921;DHT22;447;51.332;6.778;2023-06-22T14:25:55;27.60;70.80
921;DHT22;447;51.332;6.778;2023-06-22T14:28:21;27.70;71.90
921;DHT22;447;51.332;6.778;2023-06-22T14:30:50;27.60;72.10
921;DHT22;447;51.332;6.778;2023-06-22T14:33:19;27.60;71.70
921;DHT22;447;51.332;6.778;2023-06-22T14:35:50;27.60;72.40
921;DHT22;447;51.332;6.778;2023-06-22T14:38:20;27.60;71.60
921;DHT22;447;51.332;6.778;2023-06-22T14:40:47;27.60;71.50
921;DHT22;447;51.332;6.778;2023-06-22T14:43:15;27.70;71.60
921;DHT22;447;51.332;6.778;2023-06-22T14:45:45;27.60;71.90
921;DHT22;447;51.332;6.778;2023-06-22T14:48:11;27.60;72.50
921;DHT22;447;51.332;6.778;2023-06-22T14:50:39;27.60;72.70
921;DHT22;447;51.332;6.778;2023-06-22T14:53:08;27.60;72.60
921;DHT22;447;51.332;6.778;2023-06-22T14:55:40;27.60;72.50
921;DHT22;447;51.332;6.778;2023-06-22T14:58:07;27.60;72.90
921;DHT22;447;51.332;6.778;2023-06-22T15:00:35;27.60;73.00
921;DHT22;447;51.332;6.778;2023-06-22T15:03:01;27.60;73.10
921;DHT22;447;51.332;6.778;2023-06-22T15:05:30;27.50;72.80
921;DHT22;447;51.332;6.778;2023-06-22T15:07:56;27.60;72.90
921;DHT22;447;51.332;6.778;2023-06-22T15:10:25;27.50;72.60
921;DHT22;447;51.332;6.778;2023-06-22T15:12:53;27.50;72.60
921;DHT22;447;51.332;6.778;2023-06-22T15:15:22;27.50;72.60
921;DHT22;447;51.332;6.778;2023-06-22T15:17:48;27.50;73.00
921;DHT22;447;51.332;6.778;2023-06-22T15:20:14;27.50;72.90
921;DHT22;447;51.332;6.778;2023-06-22T15:22:40;27.50;73.00
921;DHT22;447;51.332;6.778;2023-06-22T15:25:06;27.50;73.20
921;DHT22;447;51.332;6.778;2023-06-22T15:27:32;27.50;73.40
921;DHT22;447;51.332;6.778;2023-06-22T15:29:58;27.50;73.40
921;DHT22;447;51.332;6.778;2023-06-22T15:32:26;27.40;73.40
921;DHT22;447;51.332;6.778;2023-06-22T15:34:51;27.50;73.50
921;DHT22;447;51.332;6.778;2023-06-22T15:37:22;27.40;73.40
921;DHT22;447;51.332;6.778;2023-06-22T15:39:47;27.40;73.40
921;DHT22;447;51.332;6.778;2023-06-22T15:42:18;27.40;73.50
921;DHT22;447;51.332;6.778;2023-06-22T15:44:44;27.40;73.60
921;DHT22;447;51.332;6.778;2023-06-22T15:47:14;27.40;73.50
921;DHT22;447;51.332;6.778;2023-06-22T15:49:42;27.40;73.80
921;DHT22;447;51.332;6.778;2023-06-22T15:52:08;27.40;74.20
921;DHT22;447;51.332;6.778;2023-06-22T15:54:33;27.40;74.20
921;DHT22;447;51.332;6.778;2023-06-22T15:57:02;27.40;74.20
921;DHT22;447;51.332;6.778;2023-06-22T15:59:28;27.40;74.20
921;DHT22;447;51.332;6.778;2023-06-22T16:01:54;27.40;74.20
921;DHT22;447;51.332;6.778;2023-06-22T16:04:21;27.40;74.00
921;DHT22;447;51.332;6.778;2023-06-22T16:06:49;27.30;73.90
921;DHT22;447;51.332;6.778;2023-06-22T16:09:17;27.30;73.80
921;DHT22;447;51.332;6.778;2023-06-22T16:11:43;27.30;73.60
921;DHT22;447;51.332;6.778;2023-06-22T16:14:12;27.30;73.60
921;DHT22;447;51.332;6.778;2023-06-22T16:16:42;27.30;73.90
921;DHT22;447;51.332;6.778;2023-06-22T16:19:08;27.30;73.90
921;DHT22;447;51.332;6.778;2023-06-22T16:21:36;27.30;73.70
921;DHT22;447;51.332;6.778;2023-06-22T16:24:02;27.30;73.70
921;DHT22;447;51.332;6.778;2023-06-22T16:26:37;27.30;73.90
921;DHT22;447;51.332;6.778;2023-06-22T16:29:07;27.30;74.30
921;DHT22;447;51.332;6.778;2023-06-22T16:31:35;27.30;74.60
921;DHT22;447;51.332;6.778;2023-06-22T16:34:02;27.30;74.80
921;DHT22;447;51.332;6.778;2023-06-22T16:36:30;27.20;74.80
921;DHT22;447;51.332;6.778;2023-06-22T16:39:24;27.20;74.80
921;DHT22;447;51.332;6.778;2023-06-22T16:41:52;27.30;75.00
921;DHT22;447;51.332;6.778;2023-06-22T16:44:20;27.20;75.20
921;DHT22;447;51.332;6.778;2023-06-22T16:46:46;27.20;75.30